Time;durP1;ratioP1;P1;durP2;ratioP2;P2;SDS_P1;SDS_P2;PMS_P1;PMS_P2;Temp;Humidity;BMP_temperature;BMP_pressure;BME280_temperature;BME280_humidity;BME280_pressure;Samples;Min_cycle;Max_cycle;Signal;HPM_P1;HPM_P2
2021/05/30 00:00:15;;;;;;;6.82;3.58;;;;;;;-145.61;100.00;68426.72;4978080;28;20050;-87
2021/05/30 00:02:41;;;;;;;4.90;3.45;;;;;;;-145.61;100.00;68426.72;4960904;28;20062;-87
2021/05/30 00:05:08;;;;;;;4.35;3.45;;;;;;;-145.61;100.00;68426.72;4960659;28;20058;-87
2021/05/30 00:07:34;;;;;;;3.97;3.33;;;;;;;-145.61;100.00;68426.72;4960776;28;20026;-87
2021/05/30 00:10:00;;;;;;;4.70;3.40;;;;;;;-145.61;100.00;68426.72;4961620;28;20034;-86
2021/05/30 00:12:25;;;;;;;5.00;3.75;;;;;;;-145.61;100.00;68426.72;4964213;28;20031;-86
2021/05/30 00:14:51;;;;;;;5.40;3.63;;;;;;;-145.61;100.00;68426.72;4964093;28;20029;-87
2021/05/30 00:17:17;;;;;;;4.65;3.33;;;;;;;-145.61;100.00;68426.72;4964399;28;20031;-87
2021/05/30 00:19:43;;;;;;;4.63;3.60;;;;;;;-145.61;100.00;68426.72;4964695;28;20031;-88
2021/05/30 00:22:10;;;;;;;4.18;3.65;;;;;;;-145.61;100.00;68426.72;4964497;28;20038;-88
2021/05/30 00:24:36;;;;;;;4.70;3.72;;;;;;;-145.61;100.00;68426.72;4981259;28;20030;-87
2021/05/30 00:27:02;;;;;;;5.85;3.50;;;;;;;-145.61;100.00;68426.72;4964220;28;20106;-86
2021/05/30 00:29:28;;;;;;;4.85;3.80;;;;;;;-145.61;100.00;68426.72;4963586;28;20077;-86
2021/05/30 00:31:53;;;;;;;5.07;3.60;;;;;;;-145.61;100.00;68426.72;4964100;28;20113;-86
2021/05/30 00:34:20;;;;;;;5.90;3.75;;;;;;;-145.61;100.00;68426.72;4965692;28;20027;-90
2021/05/30 00:36:46;;;;;;;6.25;3.63;;;;;;;-145.61;100.00;68426.72;4965556;28;20030;-88
2021/05/30 00:39:12;;;;;;;4.32;3.47;;;;;;;-145.61;100.00;68426.72;4963877;28;20046;-88
2021/05/30 00:41:37;;;;;;;3.63;3.33;;;;;;;-145.61;100.00;68426.72;4963877;28;20343;-88
2021/05/30 00:44:21;;;;;;;4.63;3.42;;;;;;;-145.61;100.00;68426.72;4980907;28;20026;-88
2021/05/30 00:47:01;;;;;;;4.03;3.63;;;;;;;-145.61;100.00;68426.72;4964141;28;20030;-88
2021/05/30 00:49:27;;;;;;;3.78;3.28;;;;;;;-145.61;100.00;68426.72;4966400;28;20113;-87
2021/05/30 00:51:53;;;;;;;4.03;3.55;;;;;;;-145.61;100.00;68426.72;4964089;28;20058;-88
2021/05/30 00:54:19;;;;;;;4.95;3.58;;;;;;;-145.61;100.00;68426.72;4963597;28;20091;-88
2021/05/30 00:56:45;;;;;;;5.20;3.55;;;;;;;-145.61;100.00;68426.72;4963134;28;20034;-87
2021/05/30 00:59:12;;;;;;;4.30;3.22;;;;;;;9.33;77.05;96446.25;4963645;28;20330;-88
2021/05/30 01:01:39;;;;;;;5.28;3.35;;;;;;;9.33;77.05;96446.25;4963997;28;20041;-88
2021/05/30 01:04:05;;;;;;;4.32;3.92;;;;;;;8.52;100.00;96314.69;4963231;28;20145;-87
2021/05/30 01:06:30;;;;;;;4.18;3.78;;;;;;;7.94;82.44;96240.31;4981105;28;20133;-88
2021/05/30 01:08:59;;;;;;;6.20;3.63;;;;;;;8.80;82.07;96367.78;4963601;28;20073;-87
2021/05/30 01:11:25;;;;;;;5.85;4.00;;;;;;;8.25;83.57;96290.94;4963305;28;20022;-88
2021/05/30 01:13:55;;;;;;;4.43;3.63;;;;;;;8.29;83.29;96316.69;4963037;28;20452;-88
2021/05/30 01:16:23;;;;;;;4.07;3.45;;;;;;;8.29;83.29;96316.69;4963194;28;20038;-87
2021/05/30 01:18:50;;;;;;;4.20;3.65;;;;;;;8.18;82.54;96283.84;4963326;28;20117;-88
2021/05/30 01:21:16;;;;;;;4.55;3.95;;;;;;;8.63;82.07;96351.03;4963005;28;20036;-88
2021/05/30 01:23:42;;;;;;;4.43;3.75;;;;;;;8.63;82.07;96351.03;4980487;28;20105;-87
2021/05/30 01:26:09;;;;;;;4.28;3.78;;;;;;;8.31;83.25;96305.41;4963305;28;20050;-88
2021/05/30 01:28:34;;;;;;;4.57;3.40;;;;;;;8.31;83.25;96305.41;4963314;28;20085;-88
2021/05/30 01:31:00;;;;;;;4.05;3.65;;;;;;;-145.61;100.00;68426.72;4962893;28;20026;-88
2021/05/30 01:33:26;;;;;;;4.03;3.53;;;;;;;8.31;83.25;96305.41;4962935;28;20034;-88
2021/05/30 01:35:52;;;;;;;4.70;3.60;;;;;;;8.37;83.06;96309.09;4962699;28;20031;-88
2021/05/30 01:38:18;;;;;;;4.40;4.00;;;;;;;8.41;82.07;96309.69;4962945;28;20026;-88
2021/05/30 01:40:44;;;;;;;4.38;3.53;;;;;;;8.41;82.07;96309.69;4963346;28;20444;-87
2021/05/30 01:43:09;;;;;;;5.05;3.78;;;;;;;8.38;82.74;96311.34;4962640;28;20058;-87
2021/05/30 01:45:35;;;;;;;4.65;3.67;;;;;;;8.38;82.74;96311.34;4962468;28;20042;-87
2021/05/30 01:48:03;;;;;;;4.93;3.60;;;;;;;8.36;82.09;96294.03;4979507;28;20149;-88
2021/05/30 01:50:32;;;;;;;6.40;3.70;;;;;;;8.51;83.01;96327.47;4979597;28;20042;-87
2021/05/30 01:53:02;;;;;;;4.00;3.60;;;;;;;8.51;83.01;96327.47;4962550;28;20048;-87
2021/05/30 01:55:31;;;;;;;;;;;;;;;8.82;84.74;96362.66;4963040;28;20034;-88
2021/05/30 01:57:58;;;;;;;3.58;3.10;;;;;;;8.44;83.28;96308.81;4979396;28;19921;-87
2021/05/30 02:00:24;;;;;;;5.40;3.70;;;;;;;8.55;83.06;96330.81;4962338;28;20034;-88
2021/05/30 02:02:55;;;;;;;4.43;4.03;;;;;;;8.74;83.30;96347.91;4962000;28;20031;-88
2021/05/30 02:05:21;;;;;;;;;;;;;;;8.72;83.07;96347.59;4962460;28;20065;-87
2021/05/30 02:07:51;;;;;;;4.47;3.70;;;;;;;8.34;83.07;96297.16;4962246;28;19960;-88
2021/05/30 02:10:19;;;;;;;5.10;3.65;;;;;;;8.53;83.44;96332.47;4978808;28;20030;-87
2021/05/30 02:12:47;;;;;;;4.43;4.00;;;;;;;8.38;83.04;96305.94;4962129;28;20030;-87
2021/05/30 02:15:13;;;;;;;4.07;3.67;;;;;;;8.38;83.04;96305.94;4962008;28;20027;-87
2021/05/30 02:17:39;;;;;;;4.10;3.70;;;;;;;8.38;83.04;96305.94;4961923;28;20027;-87
2021/05/30 02:20:06;;;;;;;4.30;3.67;;;;;;;8.34;83.01;96302.56;4961852;28;20038;-87
2021/05/30 02:22:32;;;;;;;5.50;4.00;;;;;;;8.45;83.52;96320.38;4961928;28;20085;-88
2021/05/30 02:24:58;;;;;;;4.78;3.95;;;;;;;8.17;83.77;96298.56;4961800;28;20023;-87
2021/05/30 02:27:24;;;;;;;5.93;3.55;;;;;;;8.65;84.23;96359.44;4961745;28;20821;-87
2021/05/30 02:29:50;;;;;;;4.00;3.60;;;;;;;8.61;84.00;96358.06;4961696;28;20074;-87
2021/05/30 02:32:16;;;;;;;4.65;4.18;;;;;;;8.16;83.66;96288.22;4979031;28;20031;-87
2021/05/30 02:34:43;;;;;;;5.07;3.80;;;;;;;8.36;83.29;96323.78;4960430;28;20440;-87
2021/05/30 02:37:11;;;;;;;4.25;3.85;;;;;;;8.65;83.96;96362.16;4961612;28;20054;-87
2021/05/30 02:39:37;;;;;;;5.50;4.05;;;;;;;8.26;82.62;96314.88;4961546;28;20023;-87
2021/05/30 02:42:03;;;;;;;6.10;4.57;;;;;;;8.32;83.91;96323.91;4961074;28;20033;-87
2021/05/30 02:44:29;;;;;;;5.18;4.13;;;;;;;8.51;83.26;96346.44;4961459;28;20177;-87
2021/05/30 02:46:54;;;;;;;4.57;3.65;;;;;;;8.52;84.45;96363.44;4961445;28;20065;-87
2021/05/30 02:49:20;;;;;;;4.30;3.90;;;;;;;8.38;83.23;96329.53;4978209;28;20334;-87
2021/05/30 02:51:46;;;;;;;4.93;4.40;;;;;;;8.42;83.52;96332.13;4961402;28;20027;-87
2021/05/30 02:54:11;;;;;;;5.80;4.00;;;;;;;8.57;83.19;96343.91;4961314;28;20027;-87
2021/05/30 02:56:37;;;;;;;6.30;4.30;;;;;;;8.45;83.69;96304.91;4961222;28;20031;-87
2021/05/30 02:59:03;;;;;;;4.57;3.75;;;;;;;8.73;82.91;96327.41;4961274;28;20068;-87
2021/05/30 03:01:29;;;;;;;4.60;4.13;;;;;;;8.85;82.84;96345.53;4961439;28;20402;-87
2021/05/30 03:03:54;;;;;;;4.40;4.00;;;;;;;8.53;83.69;96314.28;4961092;28;20027;-87
2021/05/30 03:06:24;;;;;;;9.30;4.28;;;;;;;8.51;82.76;96310.50;4961337;28;20026;-87
2021/05/30 03:08:50;;;;;;;5.72;4.35;;;;;;;8.43;83.50;96304.59;4961235;28;20030;-87
2021/05/30 03:11:16;;;;;;;5.05;4.53;;;;;;;8.72;83.79;96350.28;4961299;28;20057;-87
2021/05/30 03:13:42;;;;;;;4.75;4.15;;;;;;;8.48;82.47;96314.09;4978232;28;20354;-87
2021/05/30 03:16:07;;;;;;;4.38;3.97;;;;;;;8.48;82.47;96314.09;4961464;28;20023;-87
2021/05/30 03:18:33;;;;;;;4.80;4.30;;;;;;;8.54;82.21;96304.94;4961220;28;20035;-86
2021/05/30 03:20:58;;;;;;;4.40;4.00;;;;;;;8.61;83.60;96320.91;4978278;28;20026;-88
2021/05/30 03:23:24;;;;;;;4.90;4.30;;;;;;;9.00;82.32;96366.66;4961203;28;20070;-88
2021/05/30 03:25:49;;;;;;;4.85;3.88;;;;;;;8.66;83.35;96327.72;4962680;28;20030;-88
2021/05/30 03:28:15;;;;;;;6.93;4.32;;;;;;;8.45;83.67;96294.06;4978217;28;20026;-88
2021/05/30 03:30:40;;;;;;;5.25;4.20;;;;;;;8.48;82.83;96309.44;4961296;28;20343;-88
2021/05/30 03:33:06;;;;;;;4.70;4.20;;;;;;;8.84;82.46;96346.75;4961182;28;20022;-88
2021/05/30 03:35:32;;;;;;;4.10;3.70;;;;;;;8.63;81.19;96317.78;4978251;28;20026;-88
2021/05/30 03:37:58;;;;;;;4.75;3.70;;;;;;;-145.61;100.00;68426.72;4978164;28;20383;-87
2021/05/30 03:40:35;;;;;;;4.38;3.97;;;;;;;8.50;82.28;96279.22;4978328;28;20322;-87
2021/05/30 03:43:01;;;;;;;4.28;3.45;;;;;;;8.92;81.65;96350.69;4960982;28;20456;-87
2021/05/30 03:45:26;;;;;;;5.28;4.00;;;;;;;-145.61;100.00;68426.72;4962551;28;20111;-88
2021/05/30 03:47:53;;;;;;;4.78;3.95;;;;;;;-145.61;100.00;68426.72;4965075;28;20038;-88
2021/05/30 03:50:20;;;;;;;5.03;3.80;;;;;;;-145.61;100.00;68426.72;4966260;28;20513;-88
2021/05/30 03:52:46;;;;;;;4.30;3.90;;;;;;;8.92;81.65;96350.69;4966131;28;20062;-88
2021/05/30 03:55:13;;;;;;;4.80;3.97;;;;;;;-145.61;100.00;68426.72;4981782;28;20042;-88
2021/05/30 03:57:39;;;;;;;5.78;3.72;;;;;;;-145.61;100.00;68426.72;4964518;28;20031;-89
2021/05/30 04:00:17;;;;;;;4.32;3.55;;;;;;;-145.61;100.00;68426.72;4964820;28;20114;-88
2021/05/30 04:02:43;;;;;;;4.35;3.45;;;;;;;-145.61;100.00;68426.72;4964558;28;20070;-88
2021/05/30 04:05:10;;;;;;;4.03;3.35;;;;;;;-145.61;100.00;68426.72;4964347;28;20047;-88
2021/05/30 04:07:36;;;;;;;3.92;2.85;;;;;;;-145.61;100.00;68426.72;4964055;28;20086;-88
2021/05/30 04:10:07;;;;;;;4.60;3.20;;;;;;;-145.61;100.00;68426.72;4964576;28;20330;-88
2021/05/30 04:12:40;;;;;;;3.42;3.13;;;;;;;-145.61;100.00;68426.72;4964336;28;20396;-88
2021/05/30 04:15:11;;;;;;;4.13;3.17;;;;;;;-145.61;100.00;68426.72;4964443;28;20030;-88
2021/05/30 04:17:38;;;;;;;3.65;3.30;;;;;;;-145.61;100.00;68426.72;4963739;28;20038;-88
2021/05/30 04:20:07;;;;;;;4.40;3.35;;;;;;;-145.61;100.00;68426.72;4981250;28;20026;-87
2021/05/30 04:22:34;;;;;;;3.80;3.28;;;;;;;-145.61;100.00;68426.72;4981352;28;20026;-85
2021/05/30 04:25:00;;;;;;;4.00;3.60;;;;;;;-145.61;100.00;68426.72;4964011;28;20117;-87
2021/05/30 04:27:25;;;;;;;4.03;3.60;;;;;;;-145.61;100.00;68426.72;4964004;28;20113;-87
2021/05/30 04:29:51;;;;;;;4.53;3.25;;;;;;;-145.61;100.00;68426.72;4964172;28;20110;-88
2021/05/30 04:32:16;;;;;;;5.07;3.50;;;;;;;-145.61;100.00;68426.72;4981558;28;20065;-88
2021/05/30 04:34:44;;;;;;;4.85;3.47;;;;;;;-145.61;100.00;68426.72;4964003;28;20338;-88
2021/05/30 04:37:10;;;;;;;4.78;3.53;;;;;;;-145.61;100.00;68426.72;4963871;28;20053;-88
2021/05/30 04:39:36;;;;;;;4.40;3.67;;;;;;;-145.61;100.00;68426.72;4981058;28;20411;-88
2021/05/30 04:42:07;;;;;;;3.80;3.30;;;;;;;-145.61;100.00;68426.72;4963865;28;20030;-88
2021/05/30 04:44:33;;;;;;;3.75;3.10;;;;;;;-145.61;100.00;68426.72;4980853;28;20051;-87
2021/05/30 04:46:58;;;;;;;4.00;3.53;;;;;;;-145.61;100.00;68426.72;4963855;28;20050;-87
2021/05/30 04:49:24;;;;;;;3.78;3.40;;;;;;;-145.61;100.00;68426.72;4980824;28;20423;-88
2021/05/30 04:51:50;;;;;;;3.70;3.30;;;;;;;-145.61;100.00;68426.72;4963881;28;20065;-88
2021/05/30 04:54:15;;;;;;;4.55;3.30;;;;;;;-145.61;100.00;68426.72;4980673;28;20142;-88
2021/05/30 04:56:40;;;;;;;5.28;4.07;;;;;;;-145.61;100.00;68426.72;4979880;28;20035;-87
2021/05/30 04:59:06;;;;;;;4.57;3.85;;;;;;;-145.61;100.00;68426.72;4963628;28;20306;-88
2021/05/30 05:01:32;;;;;;;4.93;3.83;;;;;;;-145.61;100.00;68426.72;4963666;28;20034;-89
2021/05/30 05:03:57;;;;;;;5.90;3.58;;;;;;;-145.61;100.00;68426.72;4963162;28;20023;-87
2021/05/30 05:06:24;;;;;;;11.48;6.20;;;;;;;-145.61;100.00;68426.72;4963413;28;20458;-88
2021/05/30 05:08:50;;;;;;;7.30;4.50;;;;;;;-145.61;100.00;68426.72;4963568;28;20449;-88
2021/05/30 05:11:15;;;;;;;6.68;4.18;;;;;;;-145.61;100.00;68426.72;4963501;28;20030;-88
2021/05/30 05:13:42;;;;;;;6.47;4.22;;;;;;;-145.61;100.00;68426.72;4963409;28;20093;-88
2021/05/30 05:16:07;;;;;;;5.35;3.17;;;;;;;-145.61;100.00;68426.72;4980226;28;20023;-88
2021/05/30 05:18:33;;;;;;;5.13;3.53;;;;;;;-145.61;100.00;68426.72;4980268;28;20109;-88
2021/05/30 05:21:03;;;;;;;3.80;2.97;;;;;;;-145.61;100.00;68426.72;4980358;28;20023;-88
2021/05/30 05:23:30;;;;;;;3.47;2.95;;;;;;;-145.61;100.00;68426.72;4963181;28;20089;-88
2021/05/30 05:26:01;;;;;;;3.08;2.78;;;;;;;-145.61;100.00;68426.72;4980169;28;20033;-88
2021/05/30 05:28:27;;;;;;;3.65;2.63;;;;;;;-145.61;100.00;68426.72;4962909;28;20141;-88
2021/05/30 05:30:53;;;;;;;5.03;2.90;;;;;;;-145.61;100.00;68426.72;4962897;28;20426;-88
2021/05/30 05:33:18;;;;;;;4.28;2.72;;;;;;;-145.61;100.00;68426.72;4962784;28;20381;-88
2021/05/30 05:35:44;;;;;;;4.68;3.08;;;;;;;-145.61;100.00;68426.72;4980441;28;20302;-88
2021/05/30 05:38:11;;;;;;;5.18;3.30;;;;;;;-145.61;100.00;68426.72;4980356;28;20399;-86
2021/05/30 05:40:37;;;;;;;6.63;4.10;;;;;;;-145.61;100.00;68426.72;4979899;28;20038;-89
2021/05/30 05:43:07;;;;;;;6.28;3.83;;;;;;;-145.61;100.00;68426.72;4962717;28;20138;-88
2021/05/30 05:45:33;;;;;;;5.85;3.95;;;;;;;-145.61;100.00;68426.72;4962933;28;20062;-87
2021/05/30 05:48:00;;;;;;;9.90;4.72;;;;;;;-145.61;100.00;68426.72;4962637;28;20027;-88
2021/05/30 05:50:43;;;;;;;6.05;3.35;;;;;;;-145.61;100.00;68426.72;4962498;28;20121;-88
2021/05/30 05:53:09;;;;;;;3.92;3.28;;;;;;;-145.61;100.00;68426.72;4962542;28;20323;-87
2021/05/30 05:55:34;;;;;;;3.20;2.80;;;;;;;-145.61;100.00;68426.72;4979533;28;20084;-87
2021/05/30 05:58:00;;;;;;;3.05;2.80;;;;;;;-145.61;100.00;68426.72;4962561;28;20428;-88
2021/05/30 06:00:27;;;;;;;2.55;1.83;;;;;;;-145.61;100.00;68426.72;4962401;28;20036;-88
2021/05/30 06:02:53;;;;;;;3.28;2.30;;;;;;;8.92;81.65;96350.69;4962309;28;20445;-88
2021/05/30 06:05:20;;;;;;;2.00;1.90;;;;;;;-145.61;100.00;68426.72;4979375;28;20047;-88
2021/05/30 06:07:47;;;;;;;2.20;1.73;;;;;;;8.92;81.65;96350.69;4962070;28;20019;-88
2021/05/30 06:10:14;;;;;;;2.50;2.25;;;;;;;8.92;81.65;96350.69;4979275;28;20436;-88
2021/05/30 06:12:41;;;;;;;1.77;1.67;;;;;;;8.92;81.65;96350.69;4962164;28;20169;-88
2021/05/30 06:15:08;;;;;;;1.83;1.63;;;;;;;8.92;81.65;96350.69;4962308;28;20030;-88
2021/05/30 06:17:34;;;;;;;1.50;1.33;;;;;;;10.87;67.39;96443.31;4961932;28;20490;-88
2021/05/30 06:19:59;;;;;;;2.78;1.70;;;;;;;10.87;67.39;96443.31;4962013;28;20166;-88
2021/05/30 06:22:27;;;;;;;1.70;1.50;;;;;;;11.04;68.37;96443.72;4979343;28;20084;-88
2021/05/30 06:24:53;;;;;;;2.05;1.67;;;;;;;10.99;67.38;96419.88;4962569;28;20034;-88
2021/05/30 06:27:19;;;;;;;1.58;1.48;;;;;;;11.25;67.47;96450.16;4961911;28;20023;-88
2021/05/30 06:29:45;;;;;;;1.75;1.50;;;;;;;10.91;67.98;96392.28;4961824;28;20445;-88
2021/05/30 06:32:11;;;;;;;3.03;1.75;;;;;;;11.36;66.16;96446.94;4961675;28;20100;-88
2021/05/30 06:34:36;;;;;;;2.03;1.73;;;;;;;11.15;67.48;96451.41;4978796;28;20514;-87
2021/05/30 06:37:02;;;;;;;2.20;1.90;;;;;;;10.92;68.50;96412.81;4978666;28;20086;-88
2021/05/30 06:39:28;;;;;;;2.78;1.77;;;;;;;10.76;64.78;96394.16;4978655;28;20033;-89
2021/05/30 06:41:54;;;;;;;2.65;2.10;;;;;;;11.20;67.39;96443.38;4962102;28;20060;-89
2021/05/30 06:44:20;;;;;;;2.85;2.10;;;;;;;11.12;64.69;96425.88;4961610;28;20077;-88
2021/05/30 06:46:46;;;;;;;2.30;2.10;;;;;;;11.37;64.07;96445.72;4973140;28;20045;-90
2021/05/30 06:49:12;;;;;;;2.20;2.00;;;;;;;10.92;64.13;96379.44;4969103;28;20058;-87
2021/05/30 06:51:37;;;;;;;2.53;2.20;;;;;;;10.90;63.16;96407.06;4963325;28;20065;-85
2021/05/30 06:54:04;;;;;;;4.50;2.83;;;;;;;11.31;63.66;96442.88;4962019;28;20034;-86
2021/05/30 06:56:30;;;;;;;4.72;2.90;;;;;;;11.16;63.95;96442.78;4979733;28;20039;-86
2021/05/30 06:58:56;;;;;;;2.88;2.25;;;;;;;11.28;63.81;96449.97;4961179;28;20027;-85
2021/05/30 07:01:22;;;;;;;4.00;2.33;;;;;;;11.44;65.57;96448.09;4973593;28;20038;-87
2021/05/30 07:03:49;;;;;;;2.65;2.30;;;;;;;11.53;61.75;96442.59;4989396;28;20052;-85
2021/05/30 07:06:16;;;;;;;3.10;2.58;;;;;;;11.61;62.77;96451.16;4967387;28;20034;-87
2021/05/30 07:08:42;;;;;;;3.65;2.80;;;;;;;11.42;62.42;96440.41;4960426;28;20039;-87
2021/05/30 07:11:09;;;;;;;3.78;2.90;;;;;;;11.01;62.65;96371.25;4975602;28;20096;-86
2021/05/30 07:13:35;;;;;;;2.90;2.65;;;;;;;11.19;63.86;96406.53;4980466;28;20041;-86
2021/05/30 07:16:01;;;;;;;4.22;3.33;;;;;;;11.02;63.62;96373.53;4995766;28;20030;-86
2021/05/30 07:18:26;;;;;;;3.95;3.20;;;;;;;11.40;64.64;96409.41;4976910;28;20142;-87
2021/05/30 07:20:53;;;;;;;4.20;3.30;;;;;;;11.57;61.69;96456.06;4977043;28;20034;-87
2021/05/30 07:23:20;;;;;;;3.28;2.97;;;;;;;11.79;62.41;96461.97;4960930;28;20033;-87
2021/05/30 07:25:47;;;;;;;3.20;2.90;;;;;;;11.47;62.42;96417.25;4981014;28;20030;-86
2021/05/30 07:28:13;;;;;;;3.33;3.03;;;;;;;11.50;62.23;96427.97;4968142;28;20031;-86
2021/05/30 07:30:39;;;;;;;3.75;3.35;;;;;;;11.28;64.29;96368.41;4982039;28;20027;-86
2021/05/30 07:33:07;;;;;;;4.53;3.20;;;;;;;11.44;62.39;96369.22;4977956;28;20406;-86
2021/05/30 07:35:33;;;;;;;3.75;3.30;;;;;;;11.42;63.02;96347.19;4968845;28;20031;-86
2021/05/30 07:37:59;;;;;;;3.33;3.03;;;;;;;11.62;62.19;96352.78;4961953;28;20035;-85
2021/05/30 07:40:26;;;;;;;3.90;3.45;;;;;;;11.59;61.70;96358.41;4968178;28;20450;-86
2021/05/30 07:42:52;;;;;;;5.85;3.65;;;;;;;11.62;62.77;96377.28;4981746;28;20037;-86
2021/05/30 07:45:18;;;;;;;3.78;3.40;;;;;;;11.35;59.76;96337.41;4967444;28;20030;-86
2021/05/30 07:47:45;;;;;;;4.22;3.38;;;;;;;12.42;61.52;96460.03;4983603;28;20026;-87
2021/05/30 07:50:12;;;;;;;3.45;3.15;;;;;;;12.53;60.69;96462.22;4980858;28;20077;-86
2021/05/30 07:52:40;;;;;;;3.22;2.92;;;;;;;12.01;61.52;96369.16;4957718;28;20030;-87
2021/05/30 07:55:07;;;;;;;3.90;3.47;;;;;;;12.59;60.18;96454.88;4973405;28;20057;-86
2021/05/30 07:57:33;;;;;;;3.78;3.38;;;;;;;12.48;60.38;96419.28;4989633;28;20383;-87
2021/05/30 07:59:59;;;;;;;3.63;3.22;;;;;;;12.46;58.73;96414.28;4962409;28;20046;-87
2021/05/30 08:02:25;;;;;;;3.42;3.13;;;;;;;12.75;57.61;96451.69;4951125;28;20023;-87
2021/05/30 08:04:52;;;;;;;3.72;3.42;;;;;;;12.60;59.04;96429.13;4977212;28;20085;-87
2021/05/30 08:07:18;;;;;;;3.40;3.10;;;;;;;11.96;56.11;96354.22;4979035;28;20103;-86
2021/05/30 08:09:43;;;;;;;3.80;3.50;;;;;;;11.97;57.49;96355.72;4991869;28;20113;-87
2021/05/30 08:12:09;;;;;;;4.95;3.40;;;;;;;12.71;58.27;96456.56;4977427;28;20026;-85
2021/05/30 08:14:36;;;;;;;3.60;3.30;;;;;;;12.78;57.66;96458.16;4970419;28;20034;-86
2021/05/30 08:17:03;;;;;;;3.08;2.88;;;;;;;12.36;57.50;96377.47;4981276;28;20030;-85
2021/05/30 08:19:28;;;;;;;3.28;2.97;;;;;;;12.76;55.00;96425.19;4948376;28;20023;-86
2021/05/30 08:21:54;;;;;;;3.80;3.15;;;;;;;12.93;55.64;96436.38;4979415;28;20033;-85
2021/05/30 08:24:19;;;;;;;3.95;3.05;;;;;;;13.10;57.06;96451.00;4978395;28;20034;-86
2021/05/30 08:26:45;;;;;;;3.10;2.67;;;;;;;13.06;55.97;96420.47;4977375;28;20026;-86
2021/05/30 08:29:10;;;;;;;4.13;3.70;;;;;;;13.23;57.65;96429.69;4968965;28;20093;-85
2021/05/30 08:31:36;;;;;;;3.15;2.83;;;;;;;13.21;53.27;96436.81;4977510;28;20053;-85
2021/05/30 08:34:01;;;;;;;3.20;2.90;;;;;;;13.24;54.85;96438.63;4985320;28;20323;-86
2021/05/30 08:36:27;;;;;;;5.00;3.60;;;;;;;13.16;56.22;96442.94;4974863;28;20031;-87
2021/05/30 08:38:53;;;;;;;4.53;3.60;;;;;;;13.34;56.90;96450.94;4979740;28;20049;-87
2021/05/30 08:41:20;;;;;;;3.83;3.53;;;;;;;13.25;56.39;96448.31;4953515;28;20027;-88
2021/05/30 08:43:46;;;;;;;4.03;3.60;;;;;;;13.00;55.47;96414.19;4959392;28;20039;-87
2021/05/30 08:46:12;;;;;;;4.85;3.65;;;;;;;12.97;53.20;96421.31;4992748;28;20413;-86
2021/05/30 08:48:37;;;;;;;5.15;3.95;;;;;;;12.91;57.15;96406.88;4980869;28;20034;-87
2021/05/30 08:51:04;;;;;;;3.92;3.60;;;;;;;13.57;55.56;96462.91;4963402;28;20097;-86
2021/05/30 08:53:38;;;;;;;5.10;4.15;;;;;;;13.23;56.42;96407.88;4972067;28;20065;-87
2021/05/30 08:56:06;;;;;;;5.50;3.40;;;;;;;13.81;55.96;96455.31;4991653;28;20357;-88
2021/05/30 08:58:46;;;;;;;4.45;3.50;;;;;;;13.82;53.69;96436.94;4979683;28;20034;-87
2021/05/30 09:01:25;;;;;;;6.07;3.33;;;;;;;13.99;56.77;96446.09;4961081;29;20358;-86
2021/05/30 09:04:05;;;;;;;4.03;3.63;;;;;;;14.41;55.52;96463.97;4943897;28;20124;-86
2021/05/30 09:06:31;;;;;;;4.03;2.90;;;;;;;14.35;48.46;96438.56;4967337;28;20031;-86
2021/05/30 09:08:56;;;;;;;3.78;3.10;;;;;;;14.32;50.60;96436.78;4964363;28;20033;-86
2021/05/30 09:11:48;;;;;;;3.20;2.90;;;;;;;14.48;50.22;96465.53;4969646;28;20027;-86
2021/05/30 09:14:28;;;;;;;2.97;2.67;;;;;;;14.22;47.71;96430.75;4991828;28;20025;-87
2021/05/30 09:16:59;;;;;;;3.55;2.78;;;;;;;14.13;48.47;96417.97;4943759;29;20042;-87
2021/05/30 09:19:53;;;;;;;4.15;2.88;;;;;;;14.32;51.73;96421.16;4970506;28;20073;-86
2021/05/30 09:22:28;;;;;;;3.38;3.08;;;;;;;14.19;50.96;96407.13;4962545;28;20039;-86
2021/05/30 09:25:12;;;;;;;3.30;3.00;;;;;;;14.70;51.18;96451.34;4962688;28;20502;-86
2021/05/30 09:27:50;;;;;;;2.78;2.58;;;;;;;14.71;49.84;96436.47;4962545;28;20034;-87
2021/05/30 09:30:28;;;;;;;4.82;3.50;;;;;;;14.30;51.24;96418.16;4979817;28;20027;-87
2021/05/30 09:32:55;;;;;;;3.25;2.95;;;;;;;14.45;52.20;96456.31;4962704;28;20311;-87
2021/05/30 09:35:25;;;;;;;3.22;2.92;;;;;;;14.31;52.27;96427.09;4980031;28;20022;-87
2021/05/30 09:38:06;;;;;;;3.30;3.00;;;;;;;14.19;48.52;96418.03;4966269;28;20027;-87
2021/05/30 09:40:53;;;;;;;3.90;2.70;;;;;;;14.49;50.29;96450.66;4962232;28;20334;-88
2021/05/30 09:43:33;;;;;;;4.68;3.40;;;;;;;14.45;52.10;96423.53;4961890;28;20097;-87
2021/05/30 09:46:15;;;;;;;3.70;3.28;;;;;;;14.61;50.63;96453.03;4974851;28;20031;-86
2021/05/30 09:48:45;;;;;;;3.95;3.58;;;;;;;14.62;47.92;96451.78;4972656;28;20131;-86
2021/05/30 09:51:39;;;;;;;3.30;2.67;;;;;;;14.64;48.84;96448.56;4969611;28;20027;-86
2021/05/30 09:54:11;;;;;;;3.33;3.03;;;;;;;14.97;49.82;96447.38;4968826;28;20055;-87
2021/05/30 09:56:37;;;;;;;3.80;3.10;;;;;;;15.05;51.64;96456.66;4979360;28;20031;-86
2021/05/30 09:59:06;;;;;;;4.35;2.85;;;;;;;14.87;47.99;96406.56;4979263;28;20031;-86
2021/05/30 10:02:00;;;;;;;5.65;2.63;;;;;;;15.67;51.66;96453.16;4961846;28;20451;-85
2021/05/30 10:04:28;;;;;;;3.38;3.00;;;;;;;15.16;47.34;96432.88;4957557;28;20087;-87
2021/05/30 10:06:57;;;;;;;5.20;3.25;;;;;;;14.98;46.86;96425.03;4978330;28;20026;-86
2021/05/30 10:09:24;;;;;;;3.50;3.20;;;;;;;15.06;43.39;96439.00;4961181;28;20053;-86
2021/05/30 10:11:50;;;;;;;3.05;2.75;;;;;;;14.77;47.41;96352.53;4961325;28;20415;-86
2021/05/30 10:14:16;;;;;;;3.75;3.00;;;;;;;15.30;48.04;96444.19;4961202;28;20058;-85
2021/05/30 10:16:42;;;;;;;3.45;2.83;;;;;;;14.81;46.94;96413.97;4964389;28;20039;-85
2021/05/30 10:19:25;;;;;;;3.90;3.13;;;;;;;14.93;47.42;96455.81;4978194;28;20023;-85
2021/05/30 10:21:53;;;;;;;3.85;3.13;;;;;;;14.23;47.77;96394.00;4962691;28;20426;-85
2021/05/30 10:24:20;;;;;;;7.05;3.15;;;;;;;14.85;49.35;96455.47;4965285;28;20072;-86
2021/05/30 10:27:06;;;;;;;9.40;4.35;;;;;;;15.38;48.51;96469.84;4957441;28;20082;-87
2021/05/30 10:29:31;;;;;;;14.13;4.70;;;;;;;14.84;48.58;96426.66;4964712;28;20422;-88
2021/05/30 10:31:57;;;;;;;8.82;4.50;;;;;;;14.76;49.99;96420.13;4961418;28;20031;-88
2021/05/30 10:34:22;;;;;;;4.70;4.20;;;;;;;14.63;49.66;96445.09;4960659;28;20030;-86
2021/05/30 10:36:57;;;;;;;5.60;3.85;;;;;;;14.76;51.77;96482.25;4963854;28;20042;-86
2021/05/30 10:39:30;;;;;;;4.50;3.70;;;;;;;14.58;51.28;96473.13;4958201;28;20178;-87
2021/05/30 10:42:18;;;;;;;6.45;4.03;;;;;;;14.59;51.49;96484.78;4960828;28;20034;-87
2021/05/30 10:44:49;;;;;;;5.38;4.18;;;;;;;14.37;54.99;96486.03;4972904;28;20073;-84
2021/05/30 10:47:15;;;;;;;4.20;3.50;;;;;;;14.34;52.19;96478.06;4974597;28;20026;-86
2021/05/30 10:50:17;;;;;;;4.00;3.20;;;;;;;14.46;51.07;96492.59;4969807;28;20030;-86
2021/05/30 10:52:45;;;;;;;5.93;3.50;;;;;;;14.19;49.69;96464.47;4955344;28;20418;-85
2021/05/30 10:55:18;;;;;;;4.82;3.60;;;;;;;14.02;52.97;96467.00;4996818;28;20065;-85
2021/05/30 10:57:46;;;;;;;5.07;3.15;;;;;;;14.20;51.92;96498.75;4995802;28;20322;-85
2021/05/30 11:00:33;;;;;;;5.95;3.90;;;;;;;14.39;52.05;96493.75;4980757;28;20031;-86
2021/05/30 11:03:05;;;;;;;7.28;4.50;;;;;;;14.23;50.44;96488.84;4960822;28;20030;-89
2021/05/30 11:05:55;;;;;;;16.33;3.78;;;;;;;14.29;54.80;96492.41;4985979;28;20039;-88
2021/05/30 11:11:24;;;;;;;3.38;3.08;;;;;;;14.51;49.73;96503.59;4982342;28;20046;-85
2021/05/30 11:13:54;;;;;;;3.40;3.10;;;;;;;14.61;50.74;96513.16;4977844;28;20046;-85
2021/05/30 11:16:30;;;;;;;4.60;3.40;;;;;;;14.67;50.70;96502.28;4971442;28;20033;-85
2021/05/30 11:19:01;;;;;;;3.03;2.70;;;;;;;14.59;49.77;96477.34;4961554;28;20050;-87
2021/05/30 11:21:55;;;;;;;4.32;2.75;;;;;;;14.84;48.99;96510.66;4977581;28;20111;-85
2021/05/30 11:24:24;;;;;;;3.85;3.20;;;;;;;14.89;51.41;96502.50;4972410;28;20090;-85
2021/05/30 11:26:59;;;;;;;3.42;3.00;;;;;;;14.53;48.96;96462.13;4977431;28;20378;-86
2021/05/30 11:29:25;;;;;;;3.30;3.00;;;;;;;14.60;48.24;96510.91;4961139;28;20033;-86
2021/05/30 11:31:51;;;;;;;4.82;3.50;;;;;;;14.59;51.80;96515.59;4977175;28;20081;-87
2021/05/30 11:34:17;;;;;;;3.70;3.10;;;;;;;14.40;50.75;96506.94;4976648;28;20054;-86
2021/05/30 11:36:43;;;;;;;7.80;3.25;;;;;;;14.17;50.73;96499.72;4977491;28;20029;-87